Time;durP1;ratioP1;P1;durP2;ratioP2;P2;SDS_P1;SDS_P2;PMS_P1;PMS_P2;Temp;Humidity;BMP_temperature;BMP_pressure;BME280_temperature;BME280_humidity;BME280_pressure;Samples;Min_cycle;Max_cycle;Signal;HPM_P1;HPM_P2
2022/08/06 00:02:13;;;;;;;8.20;4.00;;;26.80;79.00;;;;;;4998038;28;20104;-61
2022/08/06 00:04:38;;;;;;;32.90;5.82;;;26.80;79.10;;;;;;4998461;28;21134;-61
2022/08/06 00:07:04;;;;;;;55.83;9.07;;;26.80;79.10;;;;;;5000673;28;20041;-61
2022/08/06 00:09:32;;;;;;;24.92;6.05;;;26.70;79.30;;;;;;5001307;28;20108;-60
2022/08/06 00:11:59;;;;;;;25.58;5.63;;;26.60;79.20;;;;;;4968255;28;20033;-62
2022/08/06 00:14:28;;;;;;;25.52;5.22;;;26.70;79.30;;;;;;5017471;28;20026;-60
2022/08/06 00:16:54;;;;;;;25.15;5.53;;;26.70;80.10;;;;;;4999827;28;20042;-61
2022/08/06 00:19:19;;;;;;;19.15;4.75;;;26.70;79.40;;;;;;5001252;28;20029;-60
2022/08/06 00:21:45;;;;;;;18.75;4.95;;;26.60;79.40;;;;;;5017378;28;20030;-61
2022/08/06 00:24:11;;;;;;;22.65;4.80;;;26.60;79.60;;;;;;5002495;28;20058;-59
2022/08/06 00:26:37;;;;;;;15.65;4.40;;;26.60;79.70;;;;;;5002536;28;20045;-61
2022/08/06 00:29:03;;;;;;;37.78;5.20;;;26.60;79.70;;;;;;4998985;28;20021;-61
2022/08/06 00:31:29;;;;;;;24.83;4.60;;;26.60;79.80;;;;;;5003756;28;20133;-60
2022/08/06 00:33:55;;;;;;;27.08;4.45;;;26.60;79.70;;;;;;4998952;28;20029;-59
2022/08/06 00:36:22;;;;;;;25.33;4.68;;;26.50;79.70;;;;;;4998640;28;20032;-60
2022/08/06 00:38:47;;;;;;;18.63;4.80;;;26.50;79.80;;;;;;4999995;28;20022;-60
2022/08/06 00:41:14;;;;;;;12.98;4.22;;;26.50;79.80;;;;;;5001549;28;20357;-60
2022/08/06 00:43:40;;;;;;;16.15;4.82;;;26.50;80.00;;;;;;4999641;28;20160;-61
2022/08/06 00:46:06;;;;;;;18.42;4.22;;;26.40;80.00;;;;;;4999502;28;20065;-61
2022/08/06 00:48:31;;;;;;;13.65;4.20;;;26.50;80.20;;;;;;5000185;28;20120;-61
2022/08/06 00:50:57;;;;;;;15.65;3.58;;;26.50;80.30;;;;;;5002127;28;20030;-60
2022/08/06 00:53:22;;;;;;;15.45;4.00;;;26.40;80.20;;;;;;5001533;28;20400;-59
2022/08/06 00:55:48;;;;;;;16.83;4.00;;;26.40;80.30;;;;;;5000531;28;20182;-60
2022/08/06 00:58:13;;;;;;;19.85;4.32;;;26.40;80.40;;;;;;5015575;28;20029;-60
2022/08/06 01:00:39;;;;;;;11.48;3.30;;;26.40;80.40;;;;;;5000508;28;20049;-61
2022/08/06 01:03:05;;;;;;;8.77;3.42;;;26.40;80.30;;;;;;4998572;28;20041;-60
2022/08/06 01:05:30;;;;;;;6.97;3.53;;;26.40;80.30;;;;;;5001420;28;20446;-61
2022/08/06 01:07:56;;;;;;;12.95;3.95;;;26.40;80.30;;;;;;4996700;28;20034;-61
2022/08/06 01:10:24;;;;;;;16.17;3.92;;;26.50;80.40;;;;;;4998328;28;20052;-61
2022/08/06 01:12:49;;;;;;;13.82;3.75;;;26.40;80.50;;;;;;4997671;28;20030;-61
2022/08/06 01:15:15;;;;;;;14.20;3.97;;;26.40;80.50;;;;;;4999323;28;20124;-60
2022/08/06 01:17:50;;;;;;;17.10;3.58;;;26.40;80.50;;;;;;4997395;28;20129;-59
2022/08/06 01:20:42;;;;;;;13.63;3.88;;;26.40;80.60;;;;;;4983914;28;20018;-62
2022/08/06 01:23:14;;;;;;;7.35;3.85;;;26.40;80.60;;;;;;4985279;28;20034;-61
2022/08/06 01:26:18;;;;;;;12.30;4.55;;;26.40;80.60;;;;;;5000774;28;20022;-60
2022/08/06 01:29:06;;;;;;;8.65;3.25;;;26.30;80.80;;;;;;4986994;28;20532;-60
2022/08/06 01:31:45;;;;;;;7.22;3.53;;;26.30;81.40;;;;;;4992032;28;20026;-61
2022/08/06 01:34:29;;;;;;;8.65;4.13;;;26.30;80.80;;;;;;4999249;28;20030;-61
2022/08/06 01:37:14;;;;;;;10.38;3.45;;;26.30;80.70;;;;;;5001448;28;20033;-61
2022/08/06 01:39:40;;;;;;;7.35;3.38;;;26.20;80.70;;;;;;4985227;28;20026;-60
2022/08/06 01:42:05;;;;;;;5.78;3.47;;;26.20;80.70;;;;;;4982527;28;20034;-60
2022/08/06 01:44:36;;;;;;;14.98;3.42;;;26.20;80.80;;;;;;4982088;28;20041;-60
2022/08/06 01:47:05;;;;;;;6.35;3.17;;;26.20;80.70;;;;;;4983397;28;20087;-62
2022/08/06 01:49:30;;;;;;;9.77;4.05;;;26.20;80.80;;;;;;4999795;28;20034;-61
2022/08/06 01:51:58;;;;;;;12.93;3.90;;;26.20;80.80;;;;;;4983416;28;20076;-60
2022/08/06 01:54:24;;;;;;;10.32;3.78;;;26.20;81.50;;;;;;5013305;28;20030;-60
2022/08/06 01:56:51;;;;;;;10.52;3.70;;;26.20;80.80;;;;;;4985988;28;20256;-61
2022/08/06 01:59:17;;;;;;;8.70;3.50;;;26.20;80.90;;;;;;4983134;28;20045;-59
2022/08/06 02:01:43;;;;;;;11.88;3.38;;;26.10;81.00;;;;;;4997552;28;20517;-60
2022/08/06 02:04:08;;;;;;;10.75;3.28;;;26.10;81.00;;;;;;5000619;28;20034;-61
2022/08/06 02:06:36;;;;;;;7.22;3.35;;;26.10;81.20;;;;;;4981751;28;20044;-61
2022/08/06 02:09:09;;;;;;;12.25;3.78;;;26.10;81.20;;;;;;4996776;28;20045;-59
2022/08/06 02:11:35;;;;;;;8.23;3.38;;;26.10;81.20;;;;;;5015600;28;20029;-61
2022/08/06 02:14:01;;;;;;;6.28;3.25;;;26.10;81.30;;;;;;5011928;28;20034;-61
2022/08/06 02:16:29;;;;;;;5.47;3.10;;;26.10;81.30;;;;;;4997032;28;20025;-60
2022/08/06 02:18:55;;;;;;;7.20;3.03;;;26.00;81.30;;;;;;4980558;28;20038;-61
2022/08/06 02:21:20;;;;;;;6.75;3.08;;;26.00;81.50;;;;;;5000172;28;20131;-61
2022/08/06 02:23:46;;;;;;;5.93;3.13;;;26.00;81.40;;;;;;4995883;28;20502;-60
2022/08/06 02:26:12;;;;;;;5.50;2.72;;;26.00;81.40;;;;;;4982217;28;20033;-60
2022/08/06 02:28:37;;;;;;;6.85;3.17;;;26.00;81.50;;;;;;4981349;28;20075;-61
2022/08/06 02:31:03;;;;;;;7.60;3.03;;;26.00;81.50;;;;;;5015612;28;20042;-61
2022/08/06 02:33:28;;;;;;;7.90;2.75;;;26.00;81.70;;;;;;4996542;28;20057;-61
2022/08/06 02:35:58;;;;;;;4.45;2.83;;;26.00;81.60;;;;;;4999499;28;20026;-60
2022/08/06 02:38:40;;;;;;;6.45;3.22;;;25.90;81.60;;;;;;4996151;28;20117;-61
2022/08/06 02:41:15;;;;;;;7.25;2.55;;;25.90;81.60;;;;;;4982959;28;20042;-61
2022/08/06 02:43:42;;;;;;;3.50;2.75;;;25.90;81.60;;;;;;5012252;28;20101;-60
2022/08/06 02:46:11;;;;;;;9.45;2.80;;;25.90;81.80;;;;;;5012344;28;20034;-61
2022/08/06 02:49:18;;;;;;;4.68;2.92;;;25.90;81.90;;;;;;5011656;28;20462;-60
2022/08/06 02:51:51;;;;;;;4.28;2.90;;;25.90;82.00;;;;;;4998004;28;20053;-61
2022/08/06 02:54:28;;;;;;;7.30;2.97;;;25.90;82.00;;;;;;4995192;28;20029;-60
2022/08/06 02:56:58;;;;;;;3.85;2.80;;;25.90;82.00;;;;;;4997363;28;20060;-60
2022/08/06 02:59:26;;;;;;;4.22;3.00;;;25.80;82.10;;;;;;5013148;28;20056;-60
2022/08/06 03:01:54;;;;;;;3.45;3.13;;;25.80;82.10;;;;;;4998814;28;20030;-61
2022/08/06 03:04:21;;;;;;;4.38;2.90;;;25.80;82.20;;;;;;4981166;28;20107;-60
2022/08/06 03:06:47;;;;;;;6.22;2.90;;;25.80;82.20;;;;;;4996400;28;20121;-61
2022/08/06 03:09:13;;;;;;;7.82;3.30;;;25.80;82.30;;;;;;4995273;28;20029;-60
2022/08/06 03:11:40;;;;;;;6.28;3.22;;;25.70;82.30;;;;;;5013652;28;20062;-61
2022/08/06 03:14:06;;;;;;;5.25;2.97;;;25.70;82.30;;;;;;5012564;28;20473;-61
2022/08/06 03:16:34;;;;;;;6.28;2.92;;;25.70;82.30;;;;;;4998268;28;20069;-60
2022/08/06 03:19:00;;;;;;;4.40;3.28;;;25.70;82.40;;;;;;4996172;28;20088;-60
2022/08/06 03:21:26;;;;;;;6.47;3.03;;;25.60;82.50;;;;;;5001839;28;20041;-60
2022/08/06 03:23:51;;;;;;;4.22;3.08;;;25.60;82.50;;;;;;4979470;28;20516;-61
2022/08/06 03:26:17;;;;;;;4.80;2.88;;;25.60;82.50;;;;;;4996846;28;20046;-60
2022/08/06 03:28:42;;;;;;;3.85;2.70;;;25.60;82.50;;;;;;5010583;28;20613;-61
2022/08/06 03:31:08;;;;;;;5.82;3.10;;;25.60;82.40;;;;;;4997877;28;20041;-61
2022/08/06 03:33:33;;;;;;;5.05;3.03;;;25.60;82.30;;;;;;4978557;28;20022;-60
2022/08/06 03:36:00;;;;;;;3.10;2.75;;;25.60;82.20;;;;;;4997637;28;20030;-60
2022/08/06 03:38:25;;;;;;;5.00;3.05;;;25.60;82.10;;;;;;5013428;28;20026;-60
2022/08/06 03:40:51;;;;;;;3.03;2.80;;;25.60;82.10;;;;;;4981530;28;20564;-63
2022/08/06 03:43:16;;;;;;;4.85;3.47;;;25.50;81.90;;;;;;4994179;28;20529;-61
2022/08/06 03:45:52;;;;;;;5.25;2.97;;;25.50;81.80;;;;;;4999120;28;20029;-60
2022/08/06 03:48:21;;;;;;;4.68;3.22;;;25.50;81.80;;;;;;4980775;28;20064;-62
2022/08/06 03:50:48;;;;;;;3.63;3.17;;;25.50;81.70;;;;;;4995444;28;20042;-63
2022/08/06 03:53:18;;;;;;;5.07;3.10;;;25.50;81.60;;;;;;4980206;28;20042;-61
2022/08/06 03:55:43;;;;;;;5.60;3.22;;;25.40;81.40;;;;;;4998216;28;20022;-61
2022/08/06 03:58:10;;;;;;;4.53;3.40;;;25.50;81.50;;;;;;5012874;28;20450;-60
2022/08/06 04:00:54;;;;;;;4.80;3.60;;;25.50;81.40;;;;;;4998885;28;20091;-60
2022/08/06 04:03:19;;;;;;;4.43;3.63;;;25.40;81.30;;;;;;4996644;28;20041;-60
2022/08/06 04:05:45;;;;;;;3.90;3.50;;;25.40;81.30;;;;;;5010817;28;20038;-61
2022/08/06 04:08:11;;;;;;;3.75;3.25;;;25.40;81.30;;;;;;4996730;28;20022;-61
2022/08/06 04:10:40;;;;;;;5.40;3.90;;;25.40;81.20;;;;;;5014179;28;20116;-61
2022/08/06 04:13:09;;;;;;;4.20;3.80;;;25.40;81.10;;;;;;4996946;28;20018;-61
2022/08/06 04:15:38;;;;;;;5.53;3.90;;;25.30;81.10;;;;;;4996063;28;20052;-60
2022/08/06 04:18:18;;;;;;;4.10;3.70;;;25.30;81.00;;;;;;4993150;28;20030;-60
2022/08/06 04:20:45;;;;;;;6.30;3.63;;;25.30;81.00;;;;;;5012007;28;20028;-60
2022/08/06 04:23:12;;;;;;;3.90;3.60;;;25.20;80.90;;;;;;4997272;28;20018;-60
2022/08/06 04:25:57;;;;;;;6.72;3.83;;;25.20;80.80;;;;;;4981112;28;20030;-60
2022/08/06 04:28:24;;;;;;;4.03;3.60;;;25.20;80.70;;;;;;4980103;28;20486;-61
2022/08/06 04:30:49;;;;;;;4.25;3.70;;;25.20;80.70;;;;;;4980924;28;20088;-60
2022/08/06 04:33:17;;;;;;;4.88;4.05;;;25.20;80.60;;;;;;4978242;28;20038;-60
2022/08/06 04:35:43;;;;;;;5.57;3.58;;;25.20;80.70;;;;;;4981405;28;20018;-61
2022/08/06 04:38:08;;;;;;;5.55;3.83;;;25.20;80.60;;;;;;4982609;28;20381;-60
2022/08/06 04:40:38;;;;;;;5.38;4.05;;;25.20;80.60;;;;;;4996619;28;20105;-60
2022/08/06 04:43:07;;;;;;;4.05;3.67;;;25.10;80.40;;;;;;4993678;28;20437;-60
2022/08/06 04:45:34;;;;;;;3.67;3.38;;;25.20;80.40;;;;;;4995890;28;20408;-61
2022/08/06 04:48:00;;;;;;;4.40;3.50;;;25.10;80.30;;;;;;5010507;28;20304;-60
2022/08/06 04:50:25;;;;;;;3.90;3.50;;;25.10;80.40;;;;;;4997067;28;20113;-60
2022/08/06 04:52:51;;;;;;;4.45;4.00;;;25.10;80.30;;;;;;4979522;28;20026;-60
2022/08/06 04:55:20;;;;;;;3.78;3.47;;;25.10;80.30;;;;;;5000749;28;20026;-61
2022/08/06 04:57:46;;;;;;;4.43;3.67;;;25.10;80.20;;;;;;4999341;28;20509;-60
2022/08/06 05:00:12;;;;;;;3.97;3.67;;;25.10;80.20;;;;;;5000656;28;20097;-61
2022/08/06 05:02:37;;;;;;;3.75;3.45;;;25.00;80.10;;;;;;4998954;28;20052;-60
2022/08/06 05:05:03;;;;;;;8.02;3.38;;;25.00;80.20;;;;;;5003368;28;20030;-61
2022/08/06 05:07:30;;;;;;;3.53;3.15;;;25.00;80.10;;;;;;4999381;28;20619;-60
2022/08/06 05:09:56;;;;;;;4.47;3.60;;;24.90;80.10;;;;;;4967256;28;20475;-60
2022/08/06 05:12:32;;;;;;;3.60;3.30;;;25.00;80.10;;;;;;4982372;28;20049;-60
2022/08/06 05:15:01;;;;;;;4.05;3.42;;;24.90;80.00;;;;;;5016984;28;20101;-60
2022/08/06 05:17:30;;;;;;;4.07;3.67;;;24.90;80.00;;;;;;4984827;28;20123;-60
2022/08/06 05:19:57;;;;;;;4.25;3.33;;;24.90;80.00;;;;;;4983735;28;20200;-60
2022/08/06 05:22:23;;;;;;;4.22;3.83;;;24.90;80.00;;;;;;4983742;28;20037;-60
2022/08/06 05:24:48;;;;;;;4.72;3.53;;;24.90;80.00;;;;;;4999264;28;20462;-60
2022/08/06 05:27:14;;;;;;;4.75;3.78;;;24.90;79.90;;;;;;4999446;28;20053;-60
2022/08/06 05:29:40;;;;;;;4.78;3.83;;;24.90;79.90;;;;;;4999908;28;20034;-60
2022/08/06 05:32:05;;;;;;;3.42;3.13;;;24.80;79.90;;;;;;4984373;28;20034;-60
2022/08/06 05:34:31;;;;;;;3.38;3.08;;;24.80;79.90;;;;;;4999942;28;20072;-60
2022/08/06 05:36:57;;;;;;;3.58;2.95;;;24.80;79.90;;;;;;4979005;28;20052;-60
2022/08/06 05:39:22;;;;;;;3.33;3.03;;;24.70;79.80;;;;;;4999331;28;20091;-60
2022/08/06 05:41:48;;;;;;;3.28;2.80;;;24.70;79.80;;;;;;4999999;28;20072;-61
2022/08/06 05:44:14;;;;;;;4.20;2.80;;;24.70;79.80;;;;;;5000160;28;20048;-61
2022/08/06 05:46:56;;;;;;;8.02;3.20;;;24.70;79.80;;;;;;5000200;28;20060;-61
2022/08/06 05:49:32;;;;;;;3.42;3.13;;;24.70;79.70;;;;;;4999196;28;20022;-61
2022/08/06 05:52:05;;;;;;;4.47;3.00;;;24.70;79.70;;;;;;4983316;28;20021;-60
2022/08/06 05:54:46;;;;;;;3.40;3.10;;;24.70;79.70;;;;;;4983668;28;20030;-60
2022/08/06 05:57:14;;;;;;;3.40;3.00;;;24.70;79.70;;;;;;5000007;28;20030;-61
2022/08/06 05:59:43;;;;;;;3.42;2.90;;;24.60;79.60;;;;;;5015989;28;20026;-61
2022/08/06 06:02:09;;;;;;;3.22;2.72;;;24.60;79.50;;;;;;4982557;28;20481;-61
2022/08/06 06:04:34;;;;;;;3.13;2.55;;;24.60;79.40;;;;;;4979864;28;20079;-60
2022/08/06 06:07:00;;;;;;;4.40;3.22;;;24.60;79.30;;;;;;4998937;28;20092;-60
2022/08/06 06:09:25;;;;;;;4.60;2.92;;;24.60;79.20;;;;;;4998089;28;20034;-61
2022/08/06 06:11:51;;;;;;;3.28;2.88;;;24.60;79.10;;;;;;4997827;28;20537;-61
2022/08/06 06:14:38;;;;;;;3.78;2.45;;;24.50;78.90;;;;;;5011646;28;20072;-60
2022/08/06 06:17:10;;;;;;;2.92;2.67;;;24.50;78.80;;;;;;4980842;28;20061;-60
2022/08/06 06:20:08;;;;;;;3.08;2.78;;;24.50;78.70;;;;;;4997989;28;20030;-61
2022/08/06 06:22:46;;;;;;;2.60;2.38;;;24.50;78.70;;;;;;4999803;28;20252;-61
2022/08/06 06:25:26;;;;;;;2.67;2.40;;;24.50;78.60;;;;;;4984527;28;20057;-60
2022/08/06 06:27:57;;;;;;;4.03;2.90;;;24.50;78.40;;;;;;4995463;28;20018;-61
2022/08/06 06:31:03;;;;;;;3.40;2.42;;;24.50;78.90;;;;;;4997000;28;20030;-61
2022/08/06 06:33:52;;;;;;;3.28;2.03;;;24.40;76.60;;;;;;4989820;28;20409;-61
2022/08/06 06:36:25;;;;;;;5.03;2.45;;;24.30;76.30;;;;;;4996353;28;20030;-61
2022/08/06 06:39:04;;;;;;;2.92;2.22;;;24.10;76.40;;;;;;5015261;28;20084;-61
2022/08/06 06:41:42;;;;;;;4.60;2.30;;;24.00;76.20;;;;;;4996821;28;20304;-61
2022/08/06 06:44:18;;;;;;;4.60;2.03;;;23.90;75.90;;;;;;4988932;28;20025;-60
2022/08/06 06:46:58;;;;;;;2.22;1.90;;;23.90;76.10;;;;;;4977128;28;20064;-61
2022/08/06 06:49:39;;;;;;;5.00;2.03;;;23.70;76.20;;;;;;4994714;28;20498;-61
2022/08/06 06:52:14;;;;;;;4.32;2.35;;;23.60;76.60;;;;;;4997445;28;20022;-61
2022/08/06 06:54:43;;;;;;;5.68;2.03;;;23.50;77.40;;;;;;4996959;28;20034;-61
2022/08/06 06:57:10;;;;;;;5.35;1.85;;;23.40;76.90;;;;;;4976115;28;20014;-61
2022/08/06 06:59:37;;;;;;;66.65;8.43;;;23.30;77.00;;;;;;4994038;28;20109;-60
2022/08/06 07:02:03;;;;;;;6.25;2.72;;;23.30;77.30;;;;;;4981549;28;20033;-61
2022/08/06 07:04:29;;;;;;;15.35;2.53;;;23.20;78.30;;;;;;4979027;28;20037;-61
2022/08/06 07:06:55;;;;;;;21.15;4.30;;;23.10;77.60;;;;;;4981033;28;20088;-60
2022/08/06 07:09:23;;;;;;;8.65;2.50;;;23.10;77.60;;;;;;5013610;28;20397;-63
2022/08/06 07:11:50;;;;;;;8.05;2.20;;;23.10;77.90;;;;;;4963797;28;20478;-61
2022/08/06 07:14:15;;;;;;;7.22;2.47;;;23.10;77.90;;;;;;4994201;28;20032;-61
2022/08/06 07:16:41;;;;;;;15.02;3.17;;;23.10;77.70;;;;;;5010317;28;20026;-61
2022/08/06 07:19:07;;;;;;;17.92;3.20;;;23.00;77.70;;;;;;4996082;28;20416;-61
2022/08/06 07:21:32;;;;;;;27.98;4.40;;;23.00;77.90;;;;;;4996058;28;20493;-60
2022/08/06 07:23:58;;;;;;;14.63;3.15;;;22.90;78.00;;;;;;4978529;28;20045;-62
2022/08/06 07:26:24;;;;;;;15.82;3.53;;;22.90;77.90;;;;;;4992025;28;20111;-61
2022/08/06 07:28:49;;;;;;;4.55;2.10;;;22.90;77.90;;;;;;4991815;28;20109;-61
2022/08/06 07:31:15;;;;;;;8.80;2.05;;;22.90;78.10;;;;;;4998937;28;20034;-61
2022/08/06 07:33:42;;;;;;;9.77;2.55;;;22.90;78.10;;;;;;4994414;28;20030;-61
2022/08/06 07:36:07;;;;;;;12.45;2.70;;;22.80;78.40;;;;;;4994662;28;20052;-63
2022/08/06 07:38:33;;;;;;;26.98;3.80;;;22.90;78.60;;;;;;4978733;28;20663;-60
2022/08/06 07:41:04;;;;;;;21.55;3.95;;;22.70;78.50;;;;;;4982129;28;20048;-61
2022/08/06 07:43:42;;;;;;;55.17;6.45;;;22.80;78.60;;;;;;4963360;28;20037;-60
2022/08/06 07:46:08;;;;;;;17.38;3.22;;;22.80;78.40;;;;;;4995598;28;20030;-61
2022/08/06 07:48:38;;;;;;;6.65;2.40;;;22.80;78.40;;;;;;4992715;28;20445;-61
2022/08/06 07:51:04;;;;;;;8.30;2.83;;;22.70;78.70;;;;;;4966132;28;20601;-61
2022/08/06 07:53:34;;;;;;;17.23;3.55;;;22.70;78.80;;;;;;4998090;28;20113;-61
2022/08/06 07:56:01;;;;;;;9.55;2.97;;;22.70;78.90;;;;;;4980474;28;20028;-61
2022/08/06 07:58:26;;;;;;;114.15;13.18;;;22.70;78.90;;;;;;4998625;28;20037;-61
2022/08/06 08:00:52;;;;;;;19.52;3.78;;;22.60;78.90;;;;;;4997946;28;20654;-61
2022/08/06 08:08:46;;;;;;;14.43;2.80;;;22.60;78.90;;;;;;5009562;28;20100;-61
2022/08/06 08:11:15;;;;;;;13.18;2.95;;;22.60;79.10;;;;;;4982033;28;20421;-61
2022/08/06 08:13:41;;;;;;;11.68;2.65;;;22.60;79.30;;;;;;4990738;28;20022;-61
2022/08/06 08:16:07;;;;;;;10.38;2.65;;;22.60;79.50;;;;;;5026347;28;20042;-61
2022/08/06 08:18:33;;;;;;;6.70;2.65;;;22.60;79.70;;;;;;4993211;28;20123;-60
2022/08/06 08:20:58;;;;;;;17.90;3.05;;;22.50;79.80;;;;;;4999622;28;20061;-60
2022/08/06 08:23:24;;;;;;;14.57;3.22;;;22.50;80.00;;;;;;4981172;28;20124;-61
2022/08/06 08:25:49;;;;;;;12.52;2.85;;;22.40;80.20;;;;;;4995612;28;20038;-61
2022/08/06 08:28:15;;;;;;;19.58;3.65;;;22.40;80.50;;;;;;4998567;28;20707;-61
2022/08/06 08:30:41;;;;;;;12.80;2.63;;;22.40;80.50;;;;;;4999603;28;20034;-62
2022/08/06 08:33:06;;;;;;;12.65;2.90;;;22.40;80.60;;;;;;4999984;28;20030;-60
2022/08/06 08:35:32;;;;;;;16.75;3.38;;;22.40;80.50;;;;;;5001476;28;20060;-60
2022/08/06 08:37:57;;;;;;;17.00;3.10;;;22.40;80.70;;;;;;5001254;28;20018;-60
2022/08/06 08:40:23;;;;;;;15.40;2.75;;;22.30;80.80;;;;;;5003806;28;20077;-61
2022/08/06 08:42:53;;;;;;;21.15;3.55;;;22.40;80.80;;;;;;5000671;28;20076;-61
2022/08/06 08:45:19;;;;;;;33.45;4.20;;;22.30;81.00;;;;;;5018232;28;20025;-60
2022/08/06 08:47:49;;;;;;;16.45;3.42;;;22.20;81.30;;;;;;4982241;28;20140;-60
2022/08/06 08:50:15;;;;;;;15.73;2.90;;;22.20;81.50;;;;;;4998664;28;20026;-60
2022/08/06 08:52:42;;;;;;;19.40;3.45;;;22.20;81.70;;;;;;4998282;28;20036;-60
2022/08/06 08:55:09;;;;;;;54.28;6.72;;;22.10;82.10;;;;;;4978789;28;20034;-61
2022/08/06 08:57:35;;;;;;;107.90;13.02;;;22.10;82.40;;;;;;4982467;28;20037;-60
2022/08/06 09:00:01;;;;;;;36.88;6.05;;;22.10;82.50;;;;;;4982790;28;20026;-61
2022/08/06 09:02:26;;;;;;;35.20;4.22;;;22.10;82.50;;;;;;4995911;28;20072;-60
2022/08/06 09:04:52;;;;;;;19.00;3.70;;;22.00;82.70;;;;;;4979436;28;20040;-61
2022/08/06 09:07:18;;;;;;;28.48;5.43;;;22.00;82.80;;;;;;4992750;28;20111;-60
2022/08/06 09:09:43;;;;;;;48.13;7.05;;;22.00;83.00;;;;;;4993061;28;20038;-61
2022/08/06 09:12:09;;;;;;;34.25;6.10;;;22.00;83.10;;;;;;4981972;28;20033;-60
2022/08/06 09:14:35;;;;;;;26.33;4.60;;;22.00;83.20;;;;;;4998565;28;20446;-60
2022/08/06 09:17:02;;;;;;;45.38;6.00;;;21.90;83.60;;;;;;4998453;28;20464;-60
2022/08/06 09:19:29;;;;;;;73.65;9.35;;;21.90;83.60;;;;;;4982298;28;20145;-60
2022/08/06 09:21:56;;;;;;;30.65;5.03;;;21.90;84.00;;;;;;4997768;28;20127;-60
2022/08/06 09:24:21;;;;;;;104.18;11.25;;;21.90;84.00;;;;;;4995000;28;20037;-60
2022/08/06 09:27:07;;;;;;;38.05;6.22;;;21.90;84.20;;;;;;4981339;28;20033;-60
2022/08/06 09:29:33;;;;;;;50.38;6.97;;;21.90;84.20;;;;;;4998217;28;20033;-61
2022/08/06 09:31:58;;;;;;;62.80;7.45;;;21.90;84.50;;;;;;4981945;28;20445;-61
2022/08/06 09:34:37;;;;;;;24.70;4.70;;;21.80;84.70;;;;;;4993441;28;20365;-60
2022/08/06 09:37:03;;;;;;;26.95;4.03;;;21.80;84.80;;;;;;5012451;28;20037;-60
2022/08/06 09:39:40;;;;;;;34.25;5.00;;;21.70;84.80;;;;;;4996410;28;20077;-61
2022/08/06 09:42:06;;;;;;;27.17;4.20;;;21.80;85.10;;;;;;4982621;28;21820;-61
2022/08/06 09:44:32;;;;;;;256.00;28.52;;;21.80;85.40;;;;;;5012453;28;20481;-60
2022/08/06 09:46:59;;;;;;;106.95;12.50;;;21.80;85.40;;;;;;4982428;28;20037;-60
2022/08/06 09:49:25;;;;;;;89.65;11.63;;;21.70;85.40;;;;;;4976799;28;20026;-60
2022/08/06 09:51:51;;;;;;;39.70;5.60;;;21.60;85.60;;;;;;4984201;28;20036;-60
2022/08/06 09:54:16;;;;;;;24.23;4.10;;;21.90;85.80;;;;;;5000777;28;20505;-60
2022/08/06 09:56:45;;;;;;;70.53;8.05;;;21.70;85.50;;;;;;4994929;28;20029;-61
2022/08/06 09:59:12;;;;;;;34.95;5.57;;;21.70;85.60;;;;;;4996821;28;20030;-60
2022/08/06 10:01:46;;;;;;;26.63;5.47;;;21.70;85.60;;;;;;4999179;28;20507;-61
2022/08/06 10:04:13;;;;;;;142.85;13.88;;;21.60;85.80;;;;;;4994985;28;20038;-60
2022/08/06 10:06:53;;;;;;;27.50;3.60;;;21.60;86.00;;;;;;4996963;28;20121;-60
2022/08/06 10:09:18;;;;;;;31.42;4.00;;;21.60;86.00;;;;;;4986219;28;20046;-60
2022/08/06 10:11:44;;;;;;;20.88;3.88;;;21.60;86.30;;;;;;4985867;28;20045;-62
2022/08/06 10:14:26;;;;;;;62.63;6.78;;;21.60;86.10;;;;;;4998020;28;20026;-62
2022/08/06 10:17:15;;;;;;;187.93;20.02;;;21.60;86.00;;;;;;4998583;28;20037;-62
2022/08/06 10:19:43;;;;;;;32.60;6.28;;;21.60;85.60;;;;;;5000120;28;20113;-62
2022/08/06 10:22:16;;;;;;;30.95;4.47;;;21.60;85.30;;;;;;4983077;28;20034;-61
2022/08/06 10:24:46;;;;;;;42.67;5.93;;;21.60;85.00;;;;;;4995464;28;20482;-62
2022/08/06 10:27:33;;;;;;;21.67;3.80;;;21.60;85.10;;;;;;4995336;28;20083;-62
2022/08/06 10:30:02;;;;;;;25.80;3.70;;;21.60;84.90;;;;;;4980138;28;20030;-61
2022/08/06 10:32:46;;;;;;;87.13;9.27;;;21.70;85.10;;;;;;4995902;28;20267;-62
2022/08/06 10:35:12;;;;;;;26.90;5.25;;;21.70;85.10;;;;;;4999849;28;20436;-61
2022/08/06 10:37:41;;;;;;;56.85;7.68;;;21.70;84.90;;;;;;5013854;28;20022;-61
2022/08/06 10:40:07;;;;;;;45.47;5.25;;;21.80;84.80;;;;;;4982934;28;20037;-62
2022/08/06 10:42:33;;;;;;;36.00;4.80;;;21.80;84.40;;;;;;4998647;28;20350;-62
2022/08/06 10:44:58;;;;;;;38.90;6.28;;;21.80;84.60;;;;;;4981228;28;20157;-62
2022/08/06 10:47:24;;;;;;;21.58;4.25;;;21.80;84.40;;;;;;4994524;28;20093;-61
2022/08/06 10:49:50;;;;;;;29.77;5.28;;;21.80;84.50;;;;;;4994612;28;20100;-62
2022/08/06 10:52:15;;;;;;;41.75;5.40;;;21.80;84.40;;;;;;4983979;28;20566;-61
2022/08/06 10:54:41;;;;;;;139.20;16.02;;;21.80;84.50;;;;;;4996483;28;20045;-62
2022/08/06 10:57:08;;;;;;;175.10;22.27;;;21.80;84.70;;;;;;4999971;28;20052;-61
2022/08/06 10:59:34;;;;;;;67.13;9.05;;;21.80;84.90;;;;;;5017513;28;20052;-61
2022/08/06 11:02:21;;;;;;;30.50;4.57;;;21.80;84.70;;;;;;5000750;28;20034;-62
2022/08/06 11:04:56;;;;;;;30.17;4.07;;;21.80;84.50;;;;;;5000897;28;20042;-62
2022/08/06 11:07:34;;;;;;;21.85;3.60;;;21.90;84.40;;;;;;5015982;28;20026;-62
2022/08/06 11:10:02;;;;;;;41.70;5.00;;;21.90;84.40;;;;;;5000770;28;20038;-62
2022/08/06 11:12:34;;;;;;;24.13;3.95;;;21.90;84.20;;;;;;4997623;28;20804;-62
2022/08/06 11:15:00;;;;;;;20.10;3.78;;;21.90;84.10;;;;;;4999634;28;20034;-62
2022/08/06 11:17:25;;;;;;;33.78;4.20;;;21.90;84.10;;;;;;4997870;28;20053;-60
2022/08/06 11:19:51;;;;;;;14.25;3.22;;;21.90;84.10;;;;;;4999734;28;20057;-62
2022/08/06 11:22:38;;;;;;;6.30;2.95;;;22.00;83.80;;;;;;4999522;28;20108;-62
2022/08/06 11:25:10;;;;;;;11.13;2.92;;;21.90;84.00;;;;;;4981986;28;20058;-62
2022/08/06 11:27:56;;;;;;;14.80;2.80;;;21.90;84.00;;;;;;4981885;28;20037;-62
2022/08/06 11:30:35;;;;;;;;;;;21.80;84.30;;;;;;4999778;28;20442;-61
2022/08/06 11:33:00;;;;;;;11.07;2.97;;;21.80;84.60;;;;;;4999322;28;20426;-62
2022/08/06 11:35:34;;;;;;;15.85;3.10;;;21.80;84.70;;;;;;4999562;28;20033;-62
2022/08/06 11:38:00;;;;;;;18.05;3.47;;;21.70;84.90;;;;;;4999423;28;20034;-61
2022/08/06 11:40:26;;;;;;;54.45;6.07;;;21.80;85.10;;;;;;4999048;28;20048;-62
2022/08/06 11:42:51;;;;;;;24.50;4.47;;;21.70;85.20;;;;;;5000407;28;20038;-62
2022/08/06 11:45:19;;;;;;;9.43;3.47;;;21.80;85.20;;;;;;4997895;28;20593;-61
2022/08/06 11:48:03;;;;;;;20.45;3.70;;;21.80;85.10;;;;;;5000384;28;20034;-62
2022/08/06 11:50:29;;;;;;;22.70;3.70;;;21.80;85.30;;;;;;5001121;28;20021;-61
2022/08/06 11:52:55;;;;;;;12.02;3.10;;;21.80;85.20;;;;;;5001858;28;20553;-62
2022/08/06 11:55:20;;;;;;;12.63;2.40;;;21.80;85.30;;;;;;5000072;28;20022;-61
2022/08/06 11:57:46;;;;;;;22.48;3.03;;;21.80;85.30;;;;;;4998268;28;20026;-61
2022/08/06 12:00:14;;;;;;;32.55;3.97;;;21.80;85.10;;;;;;4983077;28;20028;-61
2022/08/06 12:02:39;;;;;;;208.85;22.63;;;21.80;85.10;;;;;;5015848;28;20021;-62
2022/08/06 12:05:25;;;;;;;84.38;9.40;;;21.80;85.30;;;;;;5002198;28;20532;-61
2022/08/06 12:08:20;;;;;;;22.25;4.88;;;21.80;85.10;;;;;;4999306;28;20022;-61
2022/08/06 12:11:33;;;;;;;37.05;4.55;;;21.80;85.10;;;;;;4998947;28;20045;-63
2022/08/06 12:13:58;;;;;;;17.70;3.90;;;21.80;85.10;;;;;;5001224;28;20022;-62
2022/08/06 12:16:28;;;;;;;13.85;3.40;;;21.80;84.60;;;;;;5001184;28;20052;-62
2022/08/06 12:18:54;;;;;;;88.28;11.98;;;21.70;84.60;;;;;;5003508;28;20080;-62
2022/08/06 12:21:20;;;;;;;94.82;11.75;;;21.70;84.80;;;;;;4999634;28;20109;-61
2022/08/06 12:23:49;;;;;;;10.00;2.67;;;21.60;84.90;;;;;;4984091;28;20022;-61
2022/08/06 12:26:15;;;;;;;9.60;3.40;;;21.50;85.10;;;;;;4998802;28;20033;-62
2022/08/06 12:28:41;;;;;;;16.35;3.47;;;21.50;85.50;;;;;;5001655;28;20529;-62
2022/08/06 12:31:06;;;;;;;7.18;2.75;;;21.50;85.60;;;;;;4997817;28;20034;-62
2022/08/06 12:33:32;;;;;;;13.90;3.47;;;21.50;85.60;;;;;;4995846;28;20015;-62
2022/08/06 12:36:00;;;;;;;6.72;2.53;;;21.50;85.60;;;;;;4997133;28;20087;-62
2022/08/06 12:38:29;;;;;;;16.63;4.60;;;21.50;85.50;;;;;;4996724;28;20461;-62
2022/08/06 12:40:59;;;;;;;13.15;3.40;;;21.50;85.40;;;;;;4996359;28;20111;-62
2022/08/06 12:43:27;;;;;;;18.02;3.92;;;21.50;85.50;;;;;;4979960;28;20049;-62
2022/08/06 12:45:56;;;;;;;12.63;3.90;;;21.50;86.30;;;;;;4993454;28;20124;-62
2022/08/06 12:48:22;;;;;;;9.10;4.00;;;21.40;85.90;;;;;;4995504;28;20042;-61
2022/08/06 12:50:47;;;;;;;76.22;8.95;;;21.40;85.90;;;;;;4997944;28;21175;-61
2022/08/06 12:53:15;;;;;;;21.27;5.13;;;21.40;86.10;;;;;;4996668;28;20033;-61
2022/08/06 12:55:43;;;;;;;25.77;5.20;;;21.40;86.30;;;;;;4997219;28;20030;-62
2022/08/06 12:58:09;;;;;;;6.20;3.45;;;21.40;86.30;;;;;;4998258;28;20382;-61